Time;durP1;ratioP1;P1;durP2;ratioP2;P2;SDS_P1;SDS_P2;PMS_P1;PMS_P2;Temp;Humidity;BMP_temperature;BMP_pressure;BME280_temperature;BME280_humidity;BME280_pressure;Samples;Min_cycle;Max_cycle;Signal;HPM_P1;HPM_P2
2023/04/03 00:00:58;;;;;;;0.00;0.00;;;4.60;99.90;;;;;;5090738;28;20204;-59
2023/04/03 00:03:24;;;;;;;0.00;0.00;;;4.60;99.90;;;;;;5090477;28;20211;-59
2023/04/03 00:05:50;;;;;;;0.00;0.00;;;4.60;99.90;;;;;;5089616;28;20203;-59
2023/04/03 00:08:15;;;;;;;0.00;0.00;;;4.60;99.90;;;;;;5090141;28;20541;-59
2023/04/03 00:10:41;;;;;;;0.00;0.00;;;4.60;99.90;;;;;;5089896;28;20571;-59
2023/04/03 00:13:07;;;;;;;0.00;0.00;;;4.50;99.90;;;;;;5089233;28;20180;-59
2023/04/03 00:15:34;;;;;;;0.00;0.00;;;4.50;99.90;;;;;;5089624;28;20494;-59
2023/04/03 00:17:59;;;;;;;0.00;0.00;;;4.50;99.90;;;;;;5089759;28;20180;-60
2023/04/03 00:20:27;;;;;;;0.00;0.00;;;4.50;99.90;;;;;;5090459;28;20222;-59
2023/04/03 00:22:52;;;;;;;0.00;0.00;;;4.50;99.90;;;;;;5090473;28;20184;-59
2023/04/03 00:25:18;;;;;;;0.00;0.00;;;4.50;99.90;;;;;;5090659;28;20291;-59
2023/04/03 00:27:44;;;;;;;0.30;0.20;;;4.50;99.90;;;;;;5090389;28;20298;-59
2023/04/03 00:30:13;;;;;;;0.00;0.00;;;4.50;99.90;;;;;;5090329;28;20182;-59
2023/04/03 00:32:38;;;;;;;0.00;0.00;;;4.40;99.90;;;;;;5090326;28;20164;-60
2023/04/03 00:35:05;;;;;;;0.15;0.15;;;4.40;99.90;;;;;;5090313;28;20176;-59
2023/04/03 00:37:30;;;;;;;0.00;0.00;;;4.40;99.90;;;;;;5089752;28;20702;-59
2023/04/03 00:39:56;;;;;;;0.00;0.00;;;4.40;99.90;;;;;;5090556;28;20172;-59
2023/04/03 00:42:21;;;;;;;0.00;0.00;;;4.30;99.90;;;;;;5090341;28;20290;-59
2023/04/03 00:44:47;;;;;;;0.00;0.00;;;4.30;99.90;;;;;;5090202;28;20184;-59
2023/04/03 00:47:15;;;;;;;0.00;0.00;;;4.30;99.90;;;;;;5090362;28;20214;-59
2023/04/03 00:49:42;;;;;;;0.00;0.00;;;4.30;99.90;;;;;;5084694;28;20527;-59
2023/04/03 00:52:13;;;;;;;0.00;0.00;;;4.20;99.90;;;;;;5070239;28;20184;-59
2023/04/03 00:54:41;;;;;;;0.00;0.00;;;4.20;99.90;;;;;;5070298;28;20265;-60
2023/04/03 00:57:08;;;;;;;0.00;0.00;;;4.20;99.90;;;;;;5070322;28;20576;-59
2023/04/03 00:59:38;;;;;;;0.00;0.00;;;4.20;99.90;;;;;;5070076;28;20184;-59
2023/04/03 01:02:04;;;;;;;0.00;0.00;;;4.10;99.90;;;;;;5070322;28;20181;-59
2023/04/03 01:04:36;;;;;;;0.00;0.00;;;4.10;99.90;;;;;;5069976;28;20184;-59
2023/04/03 01:07:05;;;;;;;0.00;0.00;;;4.10;99.90;;;;;;5070144;28;20507;-59
2023/04/03 01:09:32;;;;;;;0.00;0.00;;;4.10;99.90;;;;;;5069865;28;20226;-59
2023/04/03 01:12:25;;;;;;;0.00;0.00;;;4.10;99.90;;;;;;5076785;28;20172;-59
2023/04/03 01:14:54;;;;;;;0.00;0.00;;;4.00;99.90;;;;;;5092388;28;20639;-59
2023/04/03 01:17:35;;;;;;;0.00;0.00;;;4.00;99.90;;;;;;5093767;28;20303;-59
2023/04/03 01:20:21;;;;;;;0.00;0.00;;;4.00;99.90;;;;;;5093170;28;20272;-59
2023/04/03 01:23:06;;;;;;;0.00;0.00;;;3.90;99.90;;;;;;5091420;28;20191;-59
2023/04/03 01:25:34;;;;;;;0.00;0.00;;;3.90;99.90;;;;;;5093274;28;20183;-59
2023/04/03 01:28:00;;;;;;;0.00;0.00;;;3.90;99.90;;;;;;5093001;28;20310;-59
2023/04/03 01:30:32;;;;;;;0.00;0.00;;;3.80;99.90;;;;;;5093068;28;20205;-59
2023/04/03 01:32:57;;;;;;;0.00;0.00;;;3.80;99.90;;;;;;5093475;28;20653;-59
2023/04/03 01:35:23;;;;;;;0.00;0.00;;;3.80;99.90;;;;;;5092831;28;20210;-59
2023/04/03 01:37:49;;;;;;;0.00;0.00;;;3.70;99.90;;;;;;5092857;28;20207;-59
2023/04/03 01:40:15;;;;;;;0.00;0.00;;;3.70;99.90;;;;;;5093200;28;20184;-59
2023/04/03 01:42:40;;;;;;;0.00;0.00;;;3.70;99.90;;;;;;5093108;28;20588;-59
2023/04/03 01:45:06;;;;;;;0.00;0.00;;;3.70;99.90;;;;;;5093283;28;20258;-59
2023/04/03 01:47:32;;;;;;;0.00;0.00;;;3.60;99.90;;;;;;5093057;28;20172;-59
2023/04/03 01:49:57;;;;;;;0.00;0.00;;;3.60;99.90;;;;;;5081283;28;20181;-59
2023/04/03 01:52:23;;;;;;;0.00;0.00;;;3.60;99.90;;;;;;5072985;28;20509;-59
2023/04/03 01:54:49;;;;;;;0.00;0.00;;;3.60;99.90;;;;;;5075095;28;20172;-60
2023/04/03 01:57:14;;;;;;;0.20;0.20;;;3.60;99.90;;;;;;5092808;28;20699;-60
2023/04/03 01:59:40;;;;;;;0.00;0.00;;;3.60;99.90;;;;;;5092967;28;20168;-60
2023/04/03 02:02:06;;;;;;;0.00;0.00;;;3.60;99.90;;;;;;5093075;28;20173;-60
2023/04/03 02:04:32;;;;;;;0.10;0.10;;;3.50;99.90;;;;;;5092587;28;20172;-60
2023/04/03 02:06:58;;;;;;;0.00;0.00;;;3.50;99.90;;;;;;5092658;28;20504;-60
2023/04/03 02:09:23;;;;;;;0.00;0.00;;;3.60;99.90;;;;;;5092917;28;20168;-60
2023/04/03 02:11:49;;;;;;;0.00;0.00;;;3.50;99.90;;;;;;5092563;28;20623;-60
2023/04/03 02:14:14;;;;;;;0.00;0.00;;;3.50;99.90;;;;;;5092579;28;20184;-60
2023/04/03 02:16:40;;;;;;;0.00;0.00;;;3.50;99.90;;;;;;5092481;28;20219;-60
2023/04/03 02:19:06;;;;;;;0.00;0.00;;;3.50;99.90;;;;;;5092700;28;20176;-59
2023/04/03 02:21:32;;;;;;;0.00;0.00;;;3.50;99.90;;;;;;5092809;28;20205;-59
2023/04/03 02:23:57;;;;;;;0.00;0.00;;;3.50;99.90;;;;;;5092645;28;20172;-59
2023/04/03 02:26:23;;;;;;;0.00;0.00;;;3.50;99.90;;;;;;5091066;28;20220;-59
2023/04/03 02:28:48;;;;;;;0.00;0.00;;;3.50;99.90;;;;;;5091605;28;20183;-59
2023/04/03 02:31:16;;;;;;;0.00;0.00;;;3.50;99.90;;;;;;5092004;28;20548;-60
2023/04/03 02:33:42;;;;;;;0.00;0.00;;;3.60;99.90;;;;;;5092107;28;20176;-59
2023/04/03 02:36:08;;;;;;;0.95;0.90;;;3.60;99.90;;;;;;5092087;28;20294;-59
2023/04/03 02:38:35;;;;;;;0.00;0.00;;;3.60;99.90;;;;;;5091744;28;20176;-59
2023/04/03 02:41:09;;;;;;;0.00;0.00;;;3.60;99.90;;;;;;5090857;28;20168;-59
2023/04/03 02:43:35;;;;;;;0.00;0.00;;;3.70;99.90;;;;;;5090849;28;20525;-59
2023/04/03 02:46:00;;;;;;;0.00;0.00;;;3.70;99.90;;;;;;5091650;28;20179;-59
2023/04/03 02:48:26;;;;;;;0.10;0.10;;;3.60;99.90;;;;;;5091463;28;20183;-60
2023/04/03 02:50:51;;;;;;;0.00;0.00;;;3.60;99.90;;;;;;5087041;28;20172;-60
2023/04/03 02:53:18;;;;;;;0.00;0.00;;;3.60;99.90;;;;;;5092117;28;20176;-61
2023/04/03 02:55:44;;;;;;;0.00;0.00;;;3.60;99.90;;;;;;5091712;28;20527;-61
2023/04/03 02:58:10;;;;;;;0.00;0.00;;;3.60;99.90;;;;;;5092301;28;20261;-60
2023/04/03 03:00:36;;;;;;;0.00;0.00;;;3.70;99.90;;;;;;5092028;28;20208;-60
2023/04/03 03:03:01;;;;;;;0.00;0.00;;;3.60;99.90;;;;;;5091828;28;20185;-61
2023/04/03 03:05:27;;;;;;;0.00;0.00;;;3.70;99.90;;;;;;5092127;28;20172;-61
2023/04/03 03:07:53;;;;;;;0.00;0.00;;;3.60;99.90;;;;;;5091838;28;20563;-60
2023/04/03 03:10:19;;;;;;;0.00;0.00;;;3.70;99.90;;;;;;5091729;28;20176;-61
2023/04/03 03:12:44;;;;;;;0.00;0.00;;;3.70;99.90;;;;;;5091765;28;20179;-60
2023/04/03 03:15:10;;;;;;;0.00;0.00;;;3.70;99.90;;;;;;5091748;28;20701;-60
2023/04/03 03:17:36;;;;;;;0.00;0.00;;;3.70;99.90;;;;;;5091611;28;20216;-60
2023/04/03 03:20:03;;;;;;;0.00;0.00;;;3.70;99.90;;;;;;5091696;28;20255;-60
2023/04/03 03:22:29;;;;;;;0.00;0.00;;;3.70;99.90;;;;;;5091567;28;20176;-60
2023/04/03 03:24:55;;;;;;;0.00;0.00;;;3.70;99.90;;;;;;5091479;28;20225;-60
2023/04/03 03:27:20;;;;;;;0.00;0.00;;;3.70;99.90;;;;;;5090372;28;20310;-61
2023/04/03 03:29:46;;;;;;;0.00;0.00;;;3.70;99.90;;;;;;5091304;28;20180;-61
2023/04/03 03:32:12;;;;;;;0.00;0.00;;;3.70;99.90;;;;;;5091453;28;20171;-61
2023/04/03 03:34:37;;;;;;;0.00;0.00;;;3.70;99.90;;;;;;5091159;28;20191;-60
2023/04/03 03:37:04;;;;;;;0.00;0.00;;;3.70;99.90;;;;;;5090285;28;20220;-61
2023/04/03 03:39:30;;;;;;;0.00;0.00;;;3.70;99.90;;;;;;5090755;28;20271;-61
2023/04/03 03:41:55;;;;;;;0.00;0.00;;;3.70;99.90;;;;;;5090305;28;20343;-59
2023/04/03 03:44:22;;;;;;;0.00;0.00;;;3.70;99.90;;;;;;5090288;28;20172;-60
2023/04/03 03:46:47;;;;;;;0.00;0.00;;;3.70;99.90;;;;;;5090860;28;20176;-59
2023/04/03 03:49:13;;;;;;;0.00;0.00;;;3.70;99.90;;;;;;5085771;28;20218;-65
2023/04/03 03:51:39;;;;;;;0.00;0.00;;;3.80;99.90;;;;;;5089591;28;20662;-61
2023/04/03 03:54:05;;;;;;;0.00;0.00;;;3.70;99.90;;;;;;5090810;28;20196;-61
2023/04/03 03:56:31;;;;;;;0.00;0.00;;;3.80;99.90;;;;;;5090635;28;20288;-60
2023/04/03 03:58:56;;;;;;;0.00;0.00;;;3.80;99.90;;;;;;5090946;28;20176;-61
2023/04/03 04:01:23;;;;;;;0.00;0.00;;;3.80;99.90;;;;;;5090452;28;20188;-60
2023/04/03 04:03:49;;;;;;;0.00;0.00;;;3.80;99.90;;;;;;5090677;28;20236;-60
2023/04/03 04:06:15;;;;;;;0.00;0.00;;;3.70;99.90;;;;;;5071934;28;20705;-59
2023/04/03 04:08:42;;;;;;;0.00;0.00;;;3.80;99.90;;;;;;5090378;28;20267;-62
2023/04/03 04:11:08;;;;;;;0.00;0.00;;;3.70;99.90;;;;;;5090657;28;20180;-59
2023/04/03 04:13:33;;;;;;;0.00;0.00;;;3.70;99.90;;;;;;5090949;28;20257;-61
2023/04/03 04:15:59;;;;;;;0.00;0.00;;;3.80;99.90;;;;;;5090622;28;20262;-62
2023/04/03 04:18:24;;;;;;;0.00;0.00;;;4.00;99.90;;;;;;5090112;28;20184;-61
2023/04/03 04:20:50;;;;;;;0.00;0.00;;;4.00;99.90;;;;;;5090674;28;20196;-61
2023/04/03 04:23:17;;;;;;;0.00;0.00;;;3.90;99.90;;;;;;5090786;28;21174;-61
2023/04/03 04:25:45;;;;;;;0.22;0.22;;;3.80;99.90;;;;;;5090685;28;20176;-61
2023/04/03 04:28:11;;;;;;;0.00;0.00;;;3.70;99.90;;;;;;5090575;28;20285;-61
2023/04/03 04:30:36;;;;;;;0.00;0.00;;;3.60;99.90;;;;;;5090625;28;20180;-61
2023/04/03 04:33:02;;;;;;;0.00;0.00;;;3.50;99.90;;;;;;5090855;28;20184;-61
2023/04/03 04:35:28;;;;;;;0.00;0.00;;;3.40;99.90;;;;;;5090771;28;20168;-62
2023/04/03 04:37:54;;;;;;;0.00;0.00;;;3.40;99.90;;;;;;5088458;28;20284;-61
2023/04/03 04:40:19;;;;;;;0.00;0.00;;;3.30;99.90;;;;;;5090459;28;20176;-61
2023/04/03 04:42:45;;;;;;;0.00;0.00;;;3.20;99.90;;;;;;5090380;28;20635;-61
2023/04/03 04:45:10;;;;;;;0.00;0.00;;;3.20;99.90;;;;;;5090174;28;20258;-61
2023/04/03 04:47:36;;;;;;;0.10;0.10;;;3.10;99.90;;;;;;5090204;28;20525;-62
2023/04/03 04:50:02;;;;;;;0.00;0.00;;;3.00;99.90;;;;;;5081739;28;20529;-62
2023/04/03 04:52:27;;;;;;;0.00;0.00;;;2.90;99.90;;;;;;5094004;28;20195;-61
2023/04/03 04:54:53;;;;;;;0.00;0.00;;;2.80;99.90;;;;;;5093003;28;20718;-61
2023/04/03 04:57:18;;;;;;;0.10;0.10;;;2.80;99.90;;;;;;5093871;28;20207;-61
2023/04/03 04:59:44;;;;;;;0.00;0.00;;;2.80;99.90;;;;;;5093710;28;20646;-61
2023/04/03 05:02:09;;;;;;;0.00;0.00;;;2.80;99.90;;;;;;5094006;28;20249;-62
2023/04/03 05:04:35;;;;;;;0.00;0.00;;;2.80;99.90;;;;;;5093628;28;20266;-62
2023/04/03 05:07:00;;;;;;;0.00;0.00;;;2.80;99.90;;;;;;5093879;28;20225;-61
2023/04/03 05:09:26;;;;;;;0.00;0.00;;;2.70;99.90;;;;;;5093826;28;20172;-61
2023/04/03 05:11:51;;;;;;;0.00;0.00;;;2.70;99.90;;;;;;5092788;28;20649;-62
2023/04/03 05:14:17;;;;;;;0.00;0.00;;;2.60;99.90;;;;;;5094221;28;20186;-61
2023/04/03 05:16:43;;;;;;;0.00;0.00;;;2.60;99.90;;;;;;5094051;28;20682;-62
2023/04/03 05:19:08;;;;;;;0.00;0.00;;;2.60;99.90;;;;;;5092856;28;20625;-61
2023/04/03 05:21:34;;;;;;;0.00;0.00;;;2.60;99.90;;;;;;5093859;28;20573;-62
2023/04/03 05:24:02;;;;;;;0.00;0.00;;;2.60;99.90;;;;;;5093845;28;20175;-61
2023/04/03 05:26:28;;;;;;;0.00;0.00;;;2.60;99.90;;;;;;5093683;28;20220;-61
2023/04/03 05:28:54;;;;;;;0.00;0.00;;;2.60;99.90;;;;;;5093927;28;20227;-61
2023/04/03 05:31:20;;;;;;;0.00;0.00;;;2.60;99.90;;;;;;5093917;28;20184;-61
2023/04/03 05:33:46;;;;;;;0.00;0.00;;;2.70;99.90;;;;;;5093511;28;20179;-61
2023/04/03 05:36:12;;;;;;;0.00;0.00;;;2.70;99.90;;;;;;5092151;28;20204;-61
2023/04/03 05:38:38;;;;;;;0.00;0.00;;;2.80;99.90;;;;;;5093498;28;20257;-61
2023/04/03 05:41:04;;;;;;;0.00;0.00;;;2.80;99.90;;;;;;5093459;28;20631;-61
2023/04/03 05:43:30;;;;;;;0.00;0.00;;;2.80;99.90;;;;;;5093579;28;20225;-61
2023/04/03 05:45:55;;;;;;;0.00;0.00;;;2.80;99.90;;;;;;5093498;28;20161;-61
2023/04/03 05:48:21;;;;;;;0.00;0.00;;;2.90;99.90;;;;;;5093344;28;20259;-61
2023/04/03 05:50:46;;;;;;;0.00;0.00;;;2.90;99.90;;;;;;5078515;28;20177;-61
2023/04/03 05:53:24;;;;;;;0.00;0.00;;;2.90;99.90;;;;;;5073238;28;20184;-60
2023/04/03 05:55:50;;;;;;;0.00;0.00;;;3.00;99.90;;;;;;5073130;28;20177;-60
2023/04/03 05:58:15;;;;;;;0.00;0.00;;;3.00;99.90;;;;;;5073181;28;20757;-60
2023/04/03 06:00:41;;;;;;;0.00;0.00;;;3.00;99.90;;;;;;5072808;28;20192;-60
2023/04/03 06:03:06;;;;;;;0.00;0.00;;;3.10;99.90;;;;;;5073005;28;20302;-61
2023/04/03 06:05:32;;;;;;;0.00;0.00;;;3.10;99.90;;;;;;5072977;28;20199;-60
2023/04/03 06:07:58;;;;;;;0.00;0.00;;;3.20;99.90;;;;;;5073155;28;20302;-61
2023/04/03 06:10:23;;;;;;;0.00;0.00;;;3.30;99.90;;;;;;5072769;28;20275;-60
2023/04/03 06:12:50;;;;;;;0.00;0.00;;;3.40;99.90;;;;;;5072628;28;20183;-60
2023/04/03 06:15:16;;;;;;;0.00;0.00;;;3.40;99.90;;;;;;5072896;28;20564;-60
2023/04/03 06:17:42;;;;;;;0.00;0.00;;;3.50;99.90;;;;;;5072705;28;20216;-60
2023/04/03 06:20:09;;;;;;;0.10;0.10;;;3.60;99.90;;;;;;5072710;28;20179;-60
2023/04/03 06:22:35;;;;;;;0.00;0.00;;;3.80;99.90;;;;;;5072727;28;20185;-60
2023/04/03 06:25:01;;;;;;;0.00;0.00;;;3.90;99.90;;;;;;5072822;28;20169;-61
2023/04/03 06:27:27;;;;;;;0.00;0.00;;;4.10;99.90;;;;;;5072284;28;20228;-60
2023/04/03 06:29:52;;;;;;;0.00;0.00;;;4.20;99.90;;;;;;5072576;28;20196;-60
2023/04/03 06:32:18;;;;;;;0.00;0.00;;;4.30;99.90;;;;;;5072513;28;20336;-61
2023/04/03 06:34:43;;;;;;;0.00;0.00;;;4.50;99.90;;;;;;5072268;28;20264;-60
2023/04/03 06:37:21;;;;;;;0.00;0.00;;;4.60;99.90;;;;;;5072446;28;20362;-61
2023/04/03 06:39:46;;;;;;;0.00;0.00;;;4.80;99.90;;;;;;5072108;28;20173;-60
2023/04/03 06:42:12;;;;;;;0.00;0.00;;;5.10;99.90;;;;;;5072208;28;20655;-60
2023/04/03 06:44:38;;;;;;;0.00;0.00;;;5.40;99.90;;;;;;5073677;28;20184;-60
2023/04/03 06:47:04;;;;;;;0.00;0.00;;;5.50;99.90;;;;;;5092375;28;20176;-60
2023/04/03 06:49:30;;;;;;;0.00;0.00;;;5.50;99.90;;;;;;5092312;28;20176;-60
2023/04/03 06:51:56;;;;;;;0.00;0.00;;;5.60;99.90;;;;;;5083543;28;20259;-61
2023/04/03 06:54:22;;;;;;;0.00;0.00;;;5.70;99.90;;;;;;5074653;28;20663;-60
2023/04/03 06:56:48;;;;;;;0.00;0.00;;;5.70;99.90;;;;;;5091886;28;20223;-61
2023/04/03 06:59:14;;;;;;;0.00;0.00;;;5.80;99.90;;;;;;5079865;28;20725;-61
2023/04/03 07:01:40;;;;;;;0.00;0.00;;;6.10;99.90;;;;;;5076244;28;20210;-61
2023/04/03 07:04:06;;;;;;;0.10;0.10;;;6.40;99.90;;;;;;5092136;28;20172;-61
2023/04/03 07:06:33;;;;;;;0.00;0.00;;;6.80;99.90;;;;;;5092060;28;20176;-61
2023/04/03 07:08:59;;;;;;;0.00;0.00;;;7.60;99.90;;;;;;5092187;28;20260;-61
2023/04/03 07:11:26;;;;;;;0.00;0.00;;;8.40;97.80;;;;;;5091484;28;20183;-61
2023/04/03 07:13:52;;;;;;;0.00;0.00;;;8.70;96.40;;;;;;5091943;28;20537;-61
2023/04/03 07:16:18;;;;;;;0.00;0.00;;;8.90;96.20;;;;;;5091966;28;20215;-61
2023/04/03 07:18:45;;;;;;;0.00;0.00;;;9.20;95.10;;;;;;5091665;28;20593;-61
2023/04/03 07:21:11;;;;;;;0.00;0.00;;;9.30;94.00;;;;;;5091972;28;20169;-61
2023/04/03 07:23:37;;;;;;;0.08;0.08;;;8.80;93.40;;;;;;5091706;28;20198;-60
2023/04/03 07:26:02;;;;;;;0.00;0.00;;;8.40;94.10;;;;;;5091580;28;20164;-61
2023/04/03 07:28:29;;;;;;;0.00;0.00;;;8.50;94.90;;;;;;5091370;28;20274;-61
2023/04/03 07:31:04;;;;;;;0.00;0.00;;;8.40;94.50;;;;;;5091538;28;20529;-62
2023/04/03 07:33:30;;;;;;;0.00;0.00;;;8.50;94.50;;;;;;5091531;28;20183;-61
2023/04/03 07:35:56;;;;;;;0.00;0.00;;;8.40;94.10;;;;;;5091399;28;20172;-61
2023/04/03 07:38:22;;;;;;;0.00;0.00;;;8.30;94.50;;;;;;5091360;28;20180;-61
2023/04/03 07:40:49;;;;;;;0.00;0.00;;;8.70;95.30;;;;;;5091144;28;20172;-61
2023/04/03 07:43:15;;;;;;;0.52;0.52;;;9.40;93.90;;;;;;5091591;28;20184;-61
2023/04/03 07:45:41;;;;;;;0.00;0.00;;;9.70;93.00;;;;;;5091584;28;20222;-61
2023/04/03 07:48:07;;;;;;;0.00;0.00;;;9.90;92.80;;;;;;5091294;28;20225;-61
2023/04/03 07:50:33;;;;;;;0.00;0.00;;;10.30;91.00;;;;;;5091087;28;20183;-61
2023/04/03 07:52:59;;;;;;;0.00;0.00;;;10.10;90.70;;;;;;5091186;28;20184;-61
2023/04/03 07:55:25;;;;;;;0.00;0.00;;;9.90;91.70;;;;;;5090974;28;20199;-60
2023/04/03 07:57:51;;;;;;;0.00;0.00;;;10.00;90.80;;;;;;5086431;28;20262;-60
2023/04/03 08:00:17;;;;;;;0.00;0.00;;;9.70;90.40;;;;;;5070655;28;20164;-60
2023/04/03 08:02:44;;;;;;;0.00;0.00;;;9.20;90.30;;;;;;5082506;28;20176;-60
2023/04/03 08:05:10;;;;;;;0.00;0.00;;;9.00;91.20;;;;;;5090958;28;20551;-61
2023/04/03 08:07:37;;;;;;;0.00;0.00;;;8.70;92.30;;;;;;5090783;28;20168;-61
2023/04/03 08:10:03;;;;;;;0.00;0.00;;;8.60;92.40;;;;;;5090884;28;20184;-61
2023/04/03 08:12:29;;;;;;;0.00;0.00;;;8.40;92.20;;;;;;5091064;28;20564;-61
2023/04/03 08:14:55;;;;;;;0.00;0.00;;;8.00;92.20;;;;;;5090900;28;20171;-61
2023/04/03 08:17:21;;;;;;;0.30;0.30;;;7.70;93.30;;;;;;5091140;28;20211;-61
2023/04/03 08:19:46;;;;;;;0.00;0.00;;;7.50;93.20;;;;;;5090958;28;20180;-62
2023/04/03 08:22:12;;;;;;;0.00;0.00;;;7.40;93.60;;;;;;5091113;28;20192;-61
2023/04/03 08:24:38;;;;;;;0.00;0.00;;;7.20;93.20;;;;;;5093255;28;20177;-61
2023/04/03 08:27:03;;;;;;;0.00;0.00;;;7.30;93.10;;;;;;5095000;28;20234;-63
2023/04/03 08:29:29;;;;;;;0.00;0.00;;;7.80;93.60;;;;;;5095423;28;20267;-61
2023/04/03 08:31:55;;;;;;;0.00;0.00;;;8.40;91.70;;;;;;5077078;28;20180;-61
2023/04/03 08:34:21;;;;;;;0.00;0.00;;;8.60;90.10;;;;;;5095236;28;20266;-62
2023/04/03 08:36:47;;;;;;;0.00;0.00;;;8.70;89.80;;;;;;5094922;28;20704;-61
2023/04/03 08:39:12;;;;;;;0.00;0.00;;;9.00;88.10;;;;;;5095106;28;20180;-62
2023/04/03 08:41:47;;;;;;;0.00;0.00;;;9.20;86.40;;;;;;5094891;28;20176;-61
2023/04/03 08:44:33;;;;;;;0.00;0.00;;;9.30;86.40;;;;;;5094989;28;20168;-61
2023/04/03 08:47:08;;;;;;;0.00;0.00;;;9.60;86.50;;;;;;5074691;28;20181;-59
2023/04/03 08:49:51;;;;;;;0.00;0.00;;;10.00;84.60;;;;;;5074431;28;20714;-61
2023/04/03 08:52:38;;;;;;;0.00;0.00;;;10.20;82.90;;;;;;5074345;28;20192;-61
2023/04/03 08:55:13;;;;;;;0.00;0.00;;;10.50;79.40;;;;;;5074199;28;20185;-61
2023/04/03 08:57:45;;;;;;;0.00;0.00;;;10.60;79.50;;;;;;5074096;28;20244;-59
2023/04/03 09:00:13;;;;;;;0.00;0.00;;;10.90;77.90;;;;;;5074480;28;20181;-59
2023/04/03 09:02:51;;;;;;;0.00;0.00;;;11.10;77.80;;;;;;5075069;28;20214;-60
2023/04/03 09:05:45;;;;;;;0.00;0.00;;;11.30;76.90;;;;;;5074200;28;20521;-59
2023/04/03 09:08:22;;;;;;;0.00;0.00;;;11.40;76.90;;;;;;5074368;28;20168;-59
2023/04/03 09:10:50;;;;;;;0.00;0.00;;;11.40;76.50;;;;;;5073942;28;20180;-60
2023/04/03 09:13:31;;;;;;;0.00;0.00;;;11.40;73.60;;;;;;5074047;28;20165;-60
2023/04/03 09:15:57;;;;;;;0.00;0.00;;;11.20;72.30;;;;;;5073922;28;20657;-61
2023/04/03 09:18:32;;;;;;;0.00;0.00;;;10.90;73.10;;;;;;5074003;28;20183;-61
2023/04/03 09:21:16;;;;;;;0.00;0.00;;;10.90;74.80;;;;;;5074156;28;20550;-61
2023/04/03 09:23:51;;;;;;;0.00;0.00;;;10.90;75.10;;;;;;5073937;28;20169;-61
2023/04/03 09:26:45;;;;;;;0.00;0.00;;;11.10;73.90;;;;;;5073728;28;20228;-61
2023/04/03 09:29:18;;;;;;;0.00;0.00;;;11.10;73.50;;;;;;5064522;28;20185;-61
2023/04/03 09:31:45;;;;;;;0.00;0.00;;;11.00;73.70;;;;;;5073657;28;20191;-61
2023/04/03 09:34:26;;;;;;;0.00;0.00;;;11.10;73.30;;;;;;5073203;28;20193;-61
2023/04/03 09:36:53;;;;;;;0.00;0.00;;;11.10;73.20;;;;;;5073686;28;20221;-61
2023/04/03 09:39:22;;;;;;;0.00;0.00;;;11.20;72.00;;;;;;5055642;28;20200;-61
2023/04/03 09:42:01;;;;;;;0.00;0.00;;;11.10;72.10;;;;;;5073161;28;20252;-60
2023/04/03 09:44:38;;;;;;;0.08;0.08;;;11.40;71.80;;;;;;5073392;28;20226;-60
2023/04/03 09:47:29;;;;;;;0.00;0.00;;;11.30;71.50;;;;;;5073391;28;20651;-61
2023/04/03 09:50:18;;;;;;;0.00;0.00;;;11.40;70.60;;;;;;5073394;28;20169;-61
2023/04/03 09:52:46;;;;;;;0.00;0.00;;;11.50;68.70;;;;;;5073136;28;20177;-60
2023/04/03 09:55:26;;;;;;;0.85;0.28;;;11.20;70.00;;;;;;5073311;28;20643;-61
2023/04/03 09:57:53;;;;;;;0.00;0.00;;;11.20;69.20;;;;;;5073008;28;20216;-61
2023/04/03 10:00:35;;;;;;;0.00;0.00;;;11.30;70.30;;;;;;5055217;28;20203;-61
2023/04/03 10:03:00;;;;;;;0.00;0.00;;;11.30;70.10;;;;;;5073933;28;20635;-61
2023/04/03 10:05:33;;;;;;;0.00;0.00;;;11.10;68.90;;;;;;5072795;28;20191;-61
2023/04/03 10:08:13;;;;;;;0.00;0.00;;;10.90;71.10;;;;;;5073017;28;20263;-61
2023/04/03 10:10:43;;;;;;;0.00;0.00;;;10.90;72.20;;;;;;5072711;28;20172;-61
2023/04/03 10:13:19;;;;;;;0.00;0.00;;;10.70;70.30;;;;;;5072871;28;20188;-61
2023/04/03 10:15:52;;;;;;;0.00;0.00;;;10.40;69.90;;;;;;5072604;28;20218;-61
2023/04/03 10:18:29;;;;;;;0.00;0.00;;;10.30;72.80;;;;;;5072794;28;20216;-61
2023/04/03 10:21:10;;;;;;;0.00;0.00;;;10.10;70.70;;;;;;5072798;28;20196;-61
2023/04/03 10:23:48;;;;;;;0.00;0.00;;;9.90;73.30;;;;;;5072683;28;20177;-61
2023/04/03 10:26:17;;;;;;;0.00;0.00;;;9.70;73.80;;;;;;5072508;28;20169;-61
2023/04/03 10:29:06;;;;;;;0.00;0.00;;;9.60;74.60;;;;;;5054577;28;20242;-61
2023/04/03 10:31:50;;;;;;;0.00;0.00;;;9.40;75.20;;;;;;5072616;28;20624;-61
2023/04/03 10:34:32;;;;;;;0.00;0.00;;;9.20;72.20;;;;;;5072456;28;20180;-61
2023/04/03 10:37:29;;;;;;;0.00;0.00;;;9.00;73.90;;;;;;5072283;28;20208;-61
2023/04/03 10:40:01;;;;;;;0.00;0.00;;;8.90;74.80;;;;;;5072484;28;20177;-61
2023/04/03 10:42:43;;;;;;;0.00;0.00;;;8.90;75.40;;;;;;5072118;28;20207;-61
2023/04/03 10:45:30;;;;;;;0.00;0.00;;;8.80;76.40;;;;;;5078130;28;20176;-62
2023/04/03 10:48:23;;;;;;;0.00;0.00;;;8.90;73.70;;;;;;5091451;28;20194;-61
2023/04/03 10:51:00;;;;;;;0.00;0.00;;;9.00;72.90;;;;;;5092270;28;20258;-61
2023/04/03 10:53:43;;;;;;;0.00;0.00;;;9.00;72.80;;;;;;5092120;28;20179;-61
2023/04/03 10:56:30;;;;;;;0.00;0.00;;;9.00;72.50;;;;;;5092185;28;20259;-61
2023/04/03 10:59:12;;;;;;;0.00;0.00;;;8.90;73.20;;;;;;5092066;28;20275;-61
2023/04/03 11:01:42;;;;;;;0.00;0.00;;;8.90;74.60;;;;;;5088666;28;20208;-61
2023/04/03 11:04:10;;;;;;;0.00;0.00;;;8.80;75.80;;;;;;5071649;28;20197;-61
2023/04/03 11:06:45;;;;;;;0.00;0.00;;;8.80;76.60;;;;;;5071570;28;20181;-61
2023/04/03 11:09:28;;;;;;;0.00;0.00;;;8.90;76.10;;;;;;5071726;28;20179;-61
2023/04/03 11:12:03;;;;;;;0.00;0.00;;;9.00;72.50;;;;;;5071674;28;20173;-61
2023/04/03 11:14:34;;;;;;;0.00;0.00;;;9.00;71.90;;;;;;5071578;28;20650;-61
2023/04/03 11:17:18;;;;;;;0.00;0.00;;;8.90;72.80;;;;;;5071400;28;20241;-61
2023/04/03 11:20:21;;;;;;;0.00;0.00;;;8.80;72.70;;;;;;5071380;28;20173;-61
2023/04/03 11:23:26;;;;;;;0.00;0.00;;;8.60;72.30;;;;;;5071294;28;20180;-61
2023/04/03 11:25:56;;;;;;;0.10;0.10;;;8.50;74.00;;;;;;5070567;28;20254;-61
2023/04/03 11:28:21;;;;;;;0.00;0.00;;;8.60;74.30;;;;;;5071499;28;20196;-61
2023/04/03 11:31:08;;;;;;;0.00;0.00;;;8.60;73.80;;;;;;5071208;28;20165;-61
2023/04/03 11:34:00;;;;;;;0.38;0.38;;;8.80;74.30;;;;;;5071400;28;20173;-61
2023/04/03 11:36:30;;;;;;;0.00;0.00;;;8.90;74.50;;;;;;5071032;28;20219;-62
2023/04/03 11:39:00;;;;;;;0.00;0.00;;;8.90;73.40;;;;;;5071274;28;20180;-61
2023/04/03 11:41:31;;;;;;;0.35;0.20;;;8.90;72.90;;;;;;5071087;28;20542;-61
2023/04/03 11:44:26;;;;;;;0.00;0.00;;;8.90;70.70;;;;;;5071046;28;20184;-61
2023/04/03 11:47:00;;;;;;;0.00;0.00;;;9.00;70.20;;;;;;5091194;28;20211;-61
2023/04/03 11:49:52;;;;;;;0.00;0.00;;;9.10;70.80;;;;;;5091182;28;20184;-61
2023/04/03 11:52:42;;;;;;;0.00;0.00;;;9.00;70.50;;;;;;5091218;28;20172;-61
2023/04/03 11:55:23;;;;;;;0.00;0.00;;;8.80;71.30;;;;;;5091066;28;20184;-61
2023/04/03 11:57:57;;;;;;;0.00;0.00;;;8.60;70.30;;;;;;5090766;28;20211;-62
2023/04/03 12:00:51;;;;;;;0.00;0.00;;;8.70;72.00;;;;;;5091197;28;20179;-61
2023/04/03 12:06:16;;;;;;;0.00;0.00;;;8.80;72.10;;;;;;5070854;28;20203;-61
2023/04/03 12:08:42;;;;;;;0.00;0.00;;;8.70;71.50;;;;;;5070859;28;20169;-62
2023/04/03 12:11:13;;;;;;;0.00;0.00;;;8.70;71.60;;;;;;5070704;28;20256;-61
2023/04/03 12:13:48;;;;;;;0.00;0.00;;;8.70;69.70;;;;;;5070687;28;20172;-61
2023/04/03 12:16:33;;;;;;;0.00;0.00;;;8.60;71.40;;;;;;5070856;28;20172;-62
2023/04/03 12:19:14;;;;;;;0.00;0.00;;;8.60;70.60;;;;;;5070874;28;20188;-60
2023/04/03 12:21:49;;;;;;;0.00;0.00;;;8.60;70.20;;;;;;5070707;28;20571;-59
2023/04/03 12:24:20;;;;;;;0.00;0.00;;;8.50;69.20;;;;;;5070729;28;20557;-60
2023/04/03 12:26:57;;;;;;;0.00;0.00;;;8.50;69.30;;;;;;5070410;28;20268;-60
2023/04/03 12:29:34;;;;;;;0.00;0.00;;;8.50;68.70;;;;;;5070862;28;20196;-60
2023/04/03 12:32:37;;;;;;;0.00;0.00;;;8.60;69.20;;;;;;5070822;28;20176;-60
2023/04/03 12:35:16;;;;;;;0.00;0.00;;;8.70;69.50;;;;;;5070676;28;20176;-59
2023/04/03 12:37:50;;;;;;;0.00;0.00;;;8.80;69.50;;;;;;5070512;28;20265;-60
2023/04/03 12:40:36;;;;;;;0.00;0.00;;;9.00;69.80;;;;;;5070513;28;20243;-60
2023/04/03 12:43:06;;;;;;;0.00;0.00;;;9.00;67.20;;;;;;5070648;28;20173;-60
2023/04/03 12:46:06;;;;;;;0.00;0.00;;;9.10;67.70;;;;;;5079396;28;20180;-60
2023/04/03 12:48:38;;;;;;;0.32;0.32;;;9.20;66.40;;;;;;5058052;28;20180;-60
2023/04/03 12:51:05;;;;;;;0.00;0.00;;;9.20;65.10;;;;;;5090567;28;20650;-60
2023/04/03 12:53:36;;;;;;;0.00;0.00;;;9.10;66.50;;;;;;5090862;28;20527;-61
2023/04/03 12:56:28;;;;;;;0.00;0.00;;;9.20;66.60;;;;;;5090486;28;20183;-61
2023/04/03 12:58:57;;;;;;;0.00;0.00;;;9.30;66.70;;;;;;5090830;28;20533;-60
2023/04/03 13:01:25;;;;;;;0.43;0.43;;;9.10;65.90;;;;;;5071373;28;20172;-60
2023/04/03 13:03:56;;;;;;;0.00;0.00;;;9.00;65.40;;;;;;5070194;28;20188;-61
2023/04/03 13:06:30;;;;;;;0.00;0.00;;;9.00;65.40;;;;;;5070400;28;20670;-60
2023/04/03 13:09:00;;;;;;;0.00;0.00;;;8.90;66.20;;;;;;5070422;28;20199;-60
2023/04/03 13:11:32;;;;;;;0.00;0.00;;;8.90;67.20;;;;;;5073481;28;20177;-60
2023/04/03 13:13:58;;;;;;;0.00;0.00;;;8.80;66.00;;;;;;5074017;28;20184;-60